createdAt,value
2019-02-04T00:02:08.256Z,5.97
2019-02-04T00:04:41.342Z,5.67
2019-02-04T00:07:11.445Z,6.10
2019-02-04T00:09:41.253Z,6.23
2019-02-04T00:12:11.201Z,6.77
2019-02-04T00:14:41.071Z,6.77
2019-02-04T00:17:11.514Z,6.13
2019-02-04T00:19:42.687Z,7.37
2019-02-04T00:22:12.868Z,7.33
2019-02-04T00:24:42.777Z,7.07
2019-02-04T00:27:12.703Z,6.63
2019-02-04T00:29:42.958Z,6.73
2019-02-04T00:32:12.786Z,7.10
2019-02-04T00:34:42.636Z,6.70
2019-02-04T00:37:12.832Z,6.63
2019-02-04T00:39:43.193Z,7.20
2019-02-04T00:42:13.033Z,8.00
2019-02-04T00:44:42.954Z,7.73
2019-02-04T00:47:12.777Z,8.07
2019-02-04T00:49:42.863Z,7.47
2019-02-04T00:52:13.409Z,7.63
2019-02-04T00:54:43.370Z,7.20
2019-02-04T00:57:13.642Z,7.07
2019-02-04T00:59:43.506Z,6.93
2019-02-04T01:02:13.815Z,7.63
2019-02-04T01:04:43.598Z,6.40
2019-02-04T01:07:14.494Z,7.23
2019-02-04T01:09:44.277Z,6.80
2019-02-04T01:12:14.168Z,6.37
2019-02-04T01:14:44.013Z,6.93
2019-02-04T01:17:14.201Z,6.77
2019-02-04T01:19:44.014Z,7.37
2019-02-04T01:22:13.853Z,6.80
2019-02-04T01:24:43.660Z,7.23
2019-02-04T01:27:13.469Z,7.27
2019-02-04T01:29:43.637Z,6.83
2019-02-04T01:32:13.451Z,7.07
2019-02-04T01:34:43.270Z,7.10
2019-02-04T01:37:13.234Z,7.83
2019-02-04T01:39:43.023Z,7.83
2019-02-04T01:42:12.913Z,7.13
2019-02-04T01:44:42.797Z,7.13
2019-02-04T01:47:14.644Z,7.90
2019-02-04T01:49:44.148Z,7.43
2019-02-04T01:52:13.926Z,8.33
2019-02-04T01:54:43.705Z,8.07
2019-02-04T01:57:14.062Z,8.10
2019-02-04T01:59:43.905Z,7.90
2019-02-04T02:02:13.844Z,8.27
2019-02-04T02:04:43.771Z,8.33
2019-02-04T02:07:13.630Z,8.57
2019-02-04T02:09:43.501Z,8.67
2019-02-04T02:12:13.274Z,8.03
2019-02-04T02:14:43.079Z,8.63
2019-02-04T02:17:12.938Z,7.93
2019-02-04T02:19:42.747Z,8.20
2019-02-04T02:22:12.530Z,8.60
2019-02-04T02:24:42.601Z,8.03
2019-02-04T02:27:12.393Z,7.80
2019-02-04T02:29:42.199Z,8.03
2019-02-04T02:32:12.003Z,8.10
2019-02-04T02:34:42.975Z,8.37
2019-02-04T02:37:12.758Z,7.53
2019-02-04T02:39:42.662Z,8.03
2019-02-04T02:42:12.438Z,8.13
2019-02-04T02:44:42.231Z,8.20
2019-02-04T02:47:12.026Z,8.50
2019-02-04T02:49:42.042Z,7.50
2019-02-04T02:52:12.193Z,8.27
2019-02-04T02:54:41.993Z,8.27
2019-02-04T02:57:11.843Z,8.27
2019-02-04T02:59:41.660Z,8.03
2019-02-04T03:02:11.534Z,8.07
2019-02-04T03:04:41.309Z,7.80
2019-02-04T03:07:11.129Z,7.40
2019-02-04T03:09:40.999Z,7.93
2019-02-04T03:12:10.850Z,8.80
2019-02-04T03:14:40.715Z,7.93
2019-02-04T03:17:10.532Z,8.00
2019-02-04T03:19:40.743Z,7.80
2019-02-04T03:22:13.666Z,8.13
2019-02-04T03:24:43.460Z,8.07
2019-02-04T03:27:16.023Z,7.73
2019-02-04T03:29:45.857Z,8.40
2019-02-04T03:32:16.158Z,7.90
2019-02-04T03:34:46.144Z,7.97
2019-02-04T03:37:15.937Z,8.23
2019-02-04T03:39:45.753Z,8.80
2019-02-04T03:42:15.641Z,7.80
2019-02-04T03:44:45.414Z,8.00
2019-02-04T03:47:15.209Z,8.23
2019-02-04T03:49:45.019Z,8.40
2019-02-04T03:52:14.875Z,8.43
2019-02-04T03:54:44.726Z,8.07
2019-02-04T03:57:14.509Z,8.10
2019-02-04T03:59:44.566Z,8.03
2019-02-04T04:02:14.438Z,8.00
2019-02-04T04:04:44.275Z,8.30
2019-02-04T04:07:14.053Z,8.63
2019-02-04T04:09:43.830Z,8.37
2019-02-04T04:12:13.658Z,8.60
2019-02-04T04:14:43.458Z,8.70
2019-02-04T04:17:13.234Z,8.03
2019-02-04T04:19:42.978Z,8.07
2019-02-04T04:22:12.857Z,8.60
2019-02-04T04:24:42.626Z,8.07
2019-02-04T04:27:12.851Z,7.60
2019-02-04T04:29:42.615Z,7.97
2019-02-04T04:32:12.401Z,7.70
2019-02-04T04:34:42.206Z,7.50
2019-02-04T04:37:11.970Z,8.20
2019-02-04T04:39:41.922Z,6.90
2019-02-04T04:42:11.774Z,8.23
2019-02-04T04:44:41.561Z,7.63
2019-02-04T04:47:11.355Z,8.10
2019-02-04T04:49:41.122Z,7.63
2019-02-04T04:52:10.898Z,8.43
2019-02-04T04:54:41.127Z,8.57
2019-02-04T04:57:10.957Z,8.17
2019-02-04T04:59:40.716Z,8.20
2019-02-04T05:02:10.603Z,8.70
2019-02-04T05:04:40.424Z,7.90
2019-02-04T05:07:10.316Z,8.53
2019-02-04T05:09:40.579Z,8.53
2019-02-04T05:12:10.357Z,8.67
2019-02-04T05:14:40.137Z,8.47
2019-02-04T05:17:09.903Z,8.50
2019-02-04T05:19:39.687Z,8.27
2019-02-04T05:22:09.547Z,8.50
2019-02-04T05:24:39.289Z,9.20
2019-02-04T05:27:09.095Z,8.90
2019-02-04T05:29:38.985Z,8.40
2019-02-04T05:32:08.811Z,8.30
2019-02-04T05:34:38.619Z,8.97
2019-02-04T05:37:08.401Z,8.57
2019-02-04T05:39:38.201Z,9.57
2019-02-04T05:42:07.966Z,8.70
2019-02-04T05:44:37.726Z,8.40
2019-02-04T05:47:07.573Z,8.80
2019-02-04T05:49:37.886Z,8.07
2019-02-04T05:52:07.758Z,9.13
2019-02-04T05:54:37.617Z,9.27
2019-02-04T05:57:07.473Z,9.03
2019-02-04T05:59:37.263Z,10.50
2019-02-04T06:02:09.421Z,9.43
2019-02-04T06:04:39.462Z,8.93
2019-02-04T06:07:09.250Z,9.37
2019-02-04T06:09:39.038Z,9.03
2019-02-04T06:12:14.714Z,9.27
2019-02-04T06:14:44.520Z,9.33
2019-02-04T06:17:14.723Z,9.20
2019-02-04T06:19:44.512Z,9.10
2019-02-04T06:22:14.329Z,8.93
2019-02-04T06:24:44.117Z,9.90
2019-02-04T06:27:13.915Z,9.37
2019-02-04T06:29:44.058Z,9.53
2019-02-04T06:32:13.914Z,9.50
2019-02-04T06:34:43.710Z,10.90
2019-02-04T06:37:13.592Z,10.07
2019-02-04T06:39:43.456Z,9.27
2019-02-04T06:42:13.336Z,9.40
2019-02-04T06:44:43.398Z,9.97
2019-02-04T06:47:13.166Z,14.00
2019-02-04T06:49:42.939Z,11.27
2019-02-04T06:52:12.733Z,10.43
2019-02-04T06:54:42.546Z,9.93
2019-02-04T06:57:13.431Z,9.23
2019-02-04T06:59:43.231Z,8.87
2019-02-04T07:02:13.030Z,9.73
2019-02-04T07:04:42.843Z,10.03
2019-02-04T07:07:15.080Z,9.40
2019-02-04T07:09:44.283Z,9.43
2019-02-04T07:12:14.473Z,10.67
2019-02-04T07:14:44.273Z,10.33
2019-02-04T07:17:14.457Z,10.20
2019-02-04T07:19:44.352Z,9.23
2019-02-04T07:22:14.186Z,10.33
2019-02-04T07:24:43.966Z,10.37
2019-02-04T07:27:13.750Z,10.93
2019-02-04T07:29:43.654Z,9.53
2019-02-04T07:32:13.529Z,9.23
2019-02-04T07:34:43.344Z,10.53
2019-02-04T07:37:13.230Z,10.47
2019-02-04T07:39:43.034Z,9.97
2019-02-04T07:42:12.890Z,10.07
2019-02-04T07:44:42.743Z,10.47
2019-02-04T07:47:12.623Z,9.97
2019-02-04T07:49:44.514Z,9.50
2019-02-04T07:52:14.414Z,10.00
2019-02-04T07:54:44.577Z,10.77
2019-02-04T07:57:14.408Z,10.37
2019-02-04T07:59:44.408Z,10.67
2019-02-04T08:02:14.224Z,9.77
2019-02-04T08:04:44.038Z,10.60
2019-02-04T08:07:13.970Z,10.63
2019-02-04T08:09:43.772Z,11.40
2019-02-04T08:12:13.658Z,11.03
2019-02-04T08:14:45.365Z,10.47
2019-02-04T08:17:15.283Z,10.63
2019-02-04T08:19:48.521Z,10.00
2019-02-04T08:22:18.303Z,11.77
2019-02-04T08:24:48.113Z,11.17
2019-02-04T08:27:17.894Z,9.50
2019-02-04T08:29:47.697Z,10.93
2019-02-04T08:32:17.534Z,10.07
2019-02-04T08:34:47.381Z,11.67
2019-02-04T08:37:17.174Z,11.63
2019-02-04T08:39:47.046Z,12.17
2019-02-04T08:42:16.890Z,11.50
2019-02-04T08:44:46.675Z,11.77
2019-02-04T08:47:23.119Z,11.53
2019-02-04T08:49:58.055Z,11.27
2019-02-04T08:52:19.606Z,10.87
2019-02-04T08:54:49.413Z,10.50
2019-02-04T08:57:19.312Z,10.73
2019-02-04T08:59:49.145Z,10.87
2019-02-04T09:02:19.002Z,10.63
2019-02-04T09:04:49.294Z,10.90
2019-02-04T09:07:19.212Z,11.60
2019-02-04T09:09:49.069Z,11.40
2019-02-04T09:12:18.913Z,11.60
2019-02-04T09:14:48.686Z,11.33
2019-02-04T09:17:18.639Z,11.50
2019-02-04T09:19:49.090Z,11.77
2019-02-04T09:22:19.019Z,11.37
2019-02-04T09:24:48.858Z,11.90
2019-02-04T09:27:18.667Z,12.33
2019-02-04T09:29:48.449Z,12.20
2019-02-04T09:32:18.252Z,12.53
2019-02-04T09:34:49.392Z,11.83
2019-02-04T09:37:19.218Z,11.80
2019-02-04T09:39:48.998Z,12.00
2019-02-04T09:42:18.805Z,12.80
2019-02-04T09:44:48.661Z,12.87
2019-02-04T09:47:18.556Z,12.67
2019-02-04T09:49:48.434Z,12.97
2019-02-04T09:52:18.233Z,13.07
2019-02-04T09:54:48.043Z,13.07
2019-02-04T09:57:17.912Z,13.90
2019-02-04T09:59:47.818Z,12.67
2019-02-04T10:02:17.829Z,12.67
2019-02-04T10:04:47.770Z,12.80
2019-02-04T10:07:17.629Z,12.77
2019-02-04T10:09:47.527Z,13.47
2019-02-04T10:12:17.360Z,13.20
2019-02-04T10:14:47.187Z,13.33
2019-02-04T10:17:17.153Z,13.27
2019-02-04T10:19:47.054Z,12.83
2019-02-04T10:22:16.939Z,13.53
2019-02-04T10:24:46.710Z,12.83
2019-02-04T10:27:16.547Z,12.87
2019-02-04T10:29:48.450Z,13.67
2019-02-04T10:32:18.375Z,12.50
2019-02-04T10:34:48.369Z,12.63
2019-02-04T10:37:18.188Z,13.03
2019-02-04T10:39:49.092Z,13.00
2019-02-04T10:42:19.053Z,12.47
2019-02-04T10:44:49.018Z,13.23
2019-02-04T10:47:19.133Z,12.67
2019-02-04T10:49:49.003Z,12.70
2019-02-04T10:52:18.889Z,12.23
2019-02-04T10:54:48.886Z,13.30
2019-02-04T10:57:19.083Z,13.10
2019-02-04T10:59:49.047Z,12.60
2019-02-04T11:02:19.048Z,12.43
2019-02-04T11:04:49.042Z,12.93
2019-02-04T11:07:19.024Z,12.43
2019-02-04T11:09:48.844Z,12.17
2019-02-04T11:12:19.047Z,12.33
2019-02-04T11:14:49.051Z,13.00
2019-02-04T11:17:19.947Z,11.43
2019-02-04T11:19:49.866Z,12.17
2019-02-04T11:22:19.732Z,11.63
2019-02-04T11:24:51.059Z,12.40
2019-02-04T11:27:20.994Z,11.37
2019-02-04T11:29:50.999Z,12.30
2019-02-04T11:32:25.023Z,11.83
2019-02-04T11:34:55.379Z,11.43
2019-02-04T11:37:29.183Z,11.20
2019-02-04T11:40:00.759Z,11.40
2019-02-04T11:42:30.650Z,11.27
2019-02-04T11:45:00.501Z,12.23
2019-02-04T11:47:30.449Z,11.93
2019-02-04T11:50:00.380Z,10.97
2019-02-04T11:52:30.181Z,11.80
2019-02-04T11:55:00.009Z,11.60
2019-02-04T11:57:29.806Z,11.37
2019-02-04T12:00:00.886Z,12.57
2019-02-04T12:02:34.595Z,12.00
2019-02-04T12:05:02.365Z,10.53
2019-02-04T12:07:32.188Z,10.63
2019-02-04T12:10:01.994Z,9.97
2019-02-04T12:12:31.886Z,11.17
2019-02-04T12:15:01.723Z,11.37
2019-02-04T12:17:31.527Z,11.10
2019-02-04T12:20:01.397Z,10.90
2019-02-04T12:22:32.234Z,11.77
2019-02-04T12:25:02.029Z,11.47
2019-02-04T12:27:32.817Z,10.53
2019-02-04T12:30:02.691Z,10.33
2019-02-04T12:32:34.165Z,10.77
2019-02-04T12:35:04.653Z,11.07
2019-02-04T12:37:34.546Z,10.50
2019-02-04T12:40:05.450Z,10.90
2019-02-04T12:42:36.231Z,10.90
2019-02-04T12:45:07.726Z,10.90
2019-02-04T12:47:39.020Z,10.87
2019-02-04T12:50:09.663Z,11.50
2019-02-04T12:52:39.519Z,11.37
2019-02-04T12:55:10.721Z,11.63
2019-02-04T12:57:40.540Z,10.37
2019-02-04T13:00:13.702Z,10.87
2019-02-04T13:02:43.514Z,10.80
2019-02-04T13:05:17.137Z,10.80
2019-02-04T13:07:46.958Z,10.90
2019-02-04T13:10:17.478Z,9.73
2019-02-04T13:12:47.326Z,8.90
2019-02-04T13:15:19.335Z,8.77
2019-02-04T13:17:49.260Z,7.97
2019-02-04T13:20:20.002Z,8.07
2019-02-04T13:22:49.749Z,7.63
2019-02-04T13:25:25.027Z,7.87
2019-02-04T13:27:55.182Z,6.80
2019-02-04T13:30:25.695Z,6.70
2019-02-04T13:32:56.065Z,7.07
2019-02-04T13:35:26.110Z,6.07
2019-02-04T13:37:56.427Z,7.10
2019-02-04T13:40:27.506Z,6.23
2019-02-04T13:42:57.815Z,5.77
2019-02-04T13:45:28.630Z,5.37
2019-02-04T13:47:58.534Z,5.20
2019-02-04T13:50:28.793Z,4.57
2019-02-04T13:52:58.605Z,5.60
2019-02-04T13:55:30.816Z,5.70
2019-02-04T13:58:01.181Z,5.70
2019-02-04T14:00:31.272Z,5.10
2019-02-04T14:03:01.501Z,4.60
2019-02-04T14:05:31.830Z,4.20
2019-02-04T14:08:01.939Z,3.50
2019-02-04T14:10:36.888Z,3.40
2019-02-04T14:13:06.919Z,4.03
2019-02-04T14:15:38.138Z,4.30
2019-02-04T14:18:08.591Z,4.13
2019-02-04T14:20:38.375Z,4.13
2019-02-04T14:23:08.219Z,3.80
2019-02-04T14:25:38.419Z,4.00
2019-02-04T14:28:08.195Z,4.13
2019-02-04T14:30:39.346Z,4.20
2019-02-04T14:33:09.377Z,3.63
2019-02-04T14:35:39.190Z,4.47
2019-02-04T14:38:09.756Z,4.50
2019-02-04T14:40:39.997Z,4.43
2019-02-04T14:43:34.286Z,4.73
2019-02-04T14:46:17.519Z,4.63
2019-02-04T14:49:41.694Z,4.47
2019-02-04T14:53:02.059Z,4.80
2019-02-04T14:55:56.357Z,4.53
2019-02-04T14:59:07.343Z,5.20
2019-02-04T15:02:20.187Z,5.13
2019-02-04T15:05:21.866Z,5.20
2019-02-04T15:08:33.441Z,4.97
2019-02-04T15:11:13.103Z,5.73
2019-02-04T15:14:18.313Z,5.97
2019-02-04T15:17:21.980Z,6.23
2019-02-04T15:20:27.746Z,4.97
2019-02-04T15:23:30.321Z,5.13
2019-02-04T15:26:30.595Z,4.80
2019-02-04T15:29:46.211Z,5.17
2019-02-04T15:32:57.618Z,4.87
2019-02-04T15:36:16.618Z,4.80
2019-02-04T15:39:21.586Z,4.70
2019-02-04T15:42:44.668Z,4.97
2019-02-04T15:46:00.835Z,4.97
2019-02-04T15:49:04.374Z,3.93
2019-02-04T15:51:38.859Z,3.70
2019-02-04T15:54:09.599Z,3.97
2019-02-04T15:56:39.573Z,3.90
2019-02-04T15:59:09.481Z,3.80
2019-02-04T16:01:39.373Z,3.43
2019-02-04T16:04:28.093Z,3.20
2019-02-04T16:06:58.032Z,3.57
2019-02-04T16:09:27.932Z,3.23
2019-02-04T16:11:57.727Z,4.10
2019-02-04T16:14:27.591Z,3.43
2019-02-04T16:16:57.872Z,3.13
2019-02-04T16:19:27.730Z,3.60
2019-02-04T16:21:57.624Z,3.50
2019-02-04T16:24:27.522Z,3.33
2019-02-04T16:26:57.453Z,3.20
2019-02-04T16:29:27.879Z,3.37
2019-02-04T16:31:58.491Z,3.47
2019-02-04T16:34:28.283Z,3.40
2019-02-04T16:36:58.158Z,3.90
2019-02-04T16:39:28.244Z,4.30
2019-02-04T16:41:58.147Z,4.17
2019-02-04T16:44:28.359Z,4.07
2019-02-04T16:46:58.174Z,4.17
2019-02-04T16:49:28.010Z,3.77
2019-02-04T16:51:57.833Z,3.70
2019-02-04T16:54:27.656Z,3.53
2019-02-04T16:56:57.545Z,3.57
2019-02-04T16:59:27.337Z,3.93
2019-02-04T17:01:57.178Z,3.60
2019-02-04T17:04:26.954Z,3.67
2019-02-04T17:06:56.823Z,3.80
2019-02-04T17:09:26.623Z,4.10
2019-02-04T17:11:56.678Z,3.83
2019-02-04T17:14:26.582Z,4.37
2019-02-04T17:16:56.388Z,3.83
2019-02-04T17:19:26.202Z,3.60
2019-02-04T17:21:56.006Z,4.00
2019-02-04T17:24:25.805Z,3.70
2019-02-04T17:26:57.116Z,4.70
2019-02-04T17:29:27.025Z,4.27
2019-02-04T17:31:57.086Z,4.30
2019-02-04T17:34:27.301Z,4.03
2019-02-04T17:36:57.220Z,4.20
2019-02-04T17:39:27.106Z,4.37
2019-02-04T17:41:57.096Z,4.00
2019-02-04T17:44:27.027Z,4.63
2019-02-04T17:46:56.958Z,4.00
2019-02-04T17:49:26.857Z,3.87
2019-02-04T17:51:56.685Z,3.73
2019-02-04T17:54:26.870Z,3.63
2019-02-04T17:56:56.767Z,3.87
2019-02-04T17:59:26.564Z,4.60
2019-02-04T18:01:56.604Z,4.60
2019-02-04T18:04:29.740Z,3.93
2019-02-04T18:06:59.599Z,4.70
2019-02-04T18:09:29.459Z,4.50
2019-02-04T18:11:59.363Z,5.23
2019-02-04T18:14:29.208Z,5.47
2019-02-04T18:16:59.114Z,5.77
2019-02-04T18:19:28.967Z,5.77
2019-02-04T18:21:59.166Z,6.37
2019-02-04T18:24:28.980Z,6.17
2019-02-04T18:27:01.469Z,5.20
2019-02-04T18:29:31.278Z,4.90
2019-02-04T18:32:01.450Z,4.90
2019-02-04T18:34:31.334Z,5.07
2019-02-04T18:37:01.322Z,4.83
2019-02-04T18:39:31.166Z,4.77
2019-02-04T18:42:01.076Z,4.63
2019-02-04T18:44:31.237Z,5.13
2019-02-04T18:47:01.102Z,4.90
2019-02-04T18:49:30.953Z,5.50
2019-02-04T18:52:00.869Z,5.67
2019-02-04T18:54:31.181Z,5.93
2019-02-04T18:57:01.041Z,5.40
2019-02-04T18:59:30.935Z,5.53
2019-02-04T19:02:00.737Z,6.10
2019-02-04T19:04:30.659Z,7.27
2019-02-04T19:07:00.543Z,6.87
2019-02-04T19:09:30.432Z,7.83
2019-02-04T19:12:00.288Z,7.87
2019-02-04T19:14:31.374Z,6.33
2019-02-04T19:17:01.231Z,6.00
2019-02-04T19:19:31.016Z,5.73
2019-02-04T19:22:00.970Z,5.43
2019-02-04T19:24:30.802Z,5.50
2019-02-04T19:27:00.607Z,5.63
2019-02-04T19:29:30.854Z,4.90
2019-02-04T19:32:02.858Z,5.20
2019-02-04T19:34:32.398Z,5.37
2019-02-04T19:37:02.201Z,5.27
2019-02-04T19:39:32.006Z,5.40
2019-02-04T19:42:01.781Z,4.77
2019-02-04T19:44:31.625Z,5.27
2019-02-04T19:47:01.504Z,5.53
2019-02-04T19:49:31.323Z,5.30
2019-02-04T19:52:01.269Z,5.10
2019-02-04T19:54:31.058Z,5.23
2019-02-04T19:57:01.372Z,5.50
2019-02-04T19:59:31.202Z,5.60
2019-02-04T20:02:02.147Z,5.67
2019-02-04T20:04:31.974Z,4.90
2019-02-04T20:07:01.813Z,6.07
2019-02-04T20:09:32.882Z,6.50
2019-02-04T20:12:03.023Z,5.43
2019-02-04T20:14:32.870Z,5.70
2019-02-04T20:17:02.754Z,5.67
2019-02-04T20:19:32.625Z,6.17
2019-02-04T20:22:02.534Z,5.57
2019-02-04T20:24:33.499Z,5.87
2019-02-04T20:27:03.574Z,5.67
2019-02-04T20:29:36.631Z,5.47
2019-02-04T20:32:06.539Z,5.27
2019-02-04T20:34:40.949Z,5.73
2019-02-04T20:37:10.956Z,5.53
2019-02-04T20:39:40.882Z,5.90
2019-02-04T20:42:10.745Z,6.13
2019-02-04T20:44:40.690Z,11.37
2019-02-04T20:47:10.973Z,6.40
2019-02-04T20:49:41.891Z,6.30
2019-02-04T20:52:15.348Z,6.67
2019-02-04T20:54:46.830Z,6.90
2019-02-04T20:57:16.803Z,5.73
2019-02-04T20:59:46.733Z,6.87
2019-02-04T21:02:16.798Z,7.40
2019-02-04T21:04:46.735Z,7.00
2019-02-04T21:07:17.773Z,7.20
2019-02-04T21:09:47.707Z,7.37
2019-02-04T21:12:17.628Z,6.90
2019-02-04T21:14:50.393Z,7.23
2019-02-04T21:17:20.704Z,6.90
2019-02-04T21:19:51.225Z,7.97
2019-02-04T21:22:21.223Z,6.43
2019-02-04T21:24:56.424Z,6.73
2019-02-04T21:27:22.739Z,7.53
2019-02-04T21:29:56.966Z,6.87
2019-02-04T21:32:28.847Z,7.30
2019-02-04T21:34:58.878Z,6.47
2019-02-04T21:37:28.784Z,6.47
2019-02-04T21:39:58.739Z,7.43
2019-02-04T21:42:29.520Z,7.37
2019-02-04T21:44:59.407Z,6.83
2019-02-04T21:47:30.389Z,6.53
2019-02-04T21:50:00.394Z,7.13
2019-02-04T21:52:30.430Z,7.10
2019-02-04T21:55:08.132Z,7.57
2019-02-04T21:57:31.795Z,6.70
2019-02-04T22:00:04.865Z,7.27
2019-02-04T22:02:33.586Z,7.07
2019-02-04T22:05:06.301Z,7.53
2019-02-04T22:07:36.291Z,7.40
2019-02-04T22:10:09.025Z,7.17
2019-02-04T22:12:41.995Z,7.40
2019-02-04T22:15:15.618Z,7.57
2019-02-04T22:17:45.665Z,7.17
2019-02-04T22:20:18.089Z,8.53
2019-02-04T22:22:49.854Z,7.13
2019-02-04T22:25:21.202Z,7.10
2019-02-04T22:27:52.237Z,7.60
2019-02-04T22:30:24.268Z,6.93
2019-02-04T22:32:54.086Z,6.83
2019-02-04T22:35:23.876Z,7.33
2019-02-04T22:37:53.792Z,7.07
2019-02-04T22:40:25.673Z,7.67
2019-02-04T22:42:57.357Z,7.77
2019-02-04T22:45:27.396Z,8.53
2019-02-04T22:47:57.383Z,7.73
2019-02-04T22:50:28.978Z,7.47
2019-02-04T22:53:02.127Z,7.57
2019-02-04T22:55:32.449Z,7.33
2019-02-04T22:58:02.774Z,8.17
2019-02-04T23:01:03.469Z,8.53
2019-02-04T23:03:33.373Z,7.20
2019-02-04T23:06:03.376Z,7.27
2019-02-04T23:08:33.267Z,8.03
2019-02-04T23:11:03.142Z,7.37
2019-02-04T23:13:32.974Z,7.93
2019-02-04T23:16:02.821Z,7.67
2019-02-04T23:18:33.573Z,7.03
2019-02-04T23:21:06.024Z,7.20
2019-02-04T23:23:35.921Z,7.40
2019-02-04T23:26:05.790Z,7.10
2019-02-04T23:28:36.683Z,7.73
2019-02-04T23:31:06.453Z,7.33
2019-02-04T23:33:36.312Z,7.13
2019-02-04T23:36:06.779Z,6.90
2019-02-04T23:38:36.542Z,7.07
2019-02-04T23:41:06.586Z,6.43
2019-02-04T23:43:36.368Z,6.13
2019-02-04T23:46:06.177Z,7.23
2019-02-04T23:48:35.950Z,6.93
2019-02-04T23:51:06.302Z,7.00
2019-02-04T23:53:36.180Z,6.53
2019-02-04T23:56:06.152Z,6.73
2019-02-04T23:58:35.987Z,7.00
